Terminal Aerodrome Forecast
Issued by NWS Brownsville, TX

Home | Current Version | Previous Version | Text Only | Print | Product List | Glossary On
Versions: 1 2 3 4 5 6 7 8 9 10 11 12 13
000
FTUS44 KBRO 242300
TAFBRO
TAF
KBRO 242336Z 2500/2524 33007KT P6SM SKC
     FM250300 00000KT P6SM SKC
     FM251400 17007KT P6SM FEW250
     FM251700 17015G22KT P6SM SCT250
     FM252000 15020G28KT P6SM FEW035 SCT250=

USA.gov is the U.S. government's official web portal to all federal, state and local government web resources and services.